Time;durP1;ratioP1;P1;durP2;ratioP2;P2;SDS_P1;SDS_P2;PMS_P1;PMS_P2;Temp;Humidity;BMP_temperature;BMP_pressure;BME280_temperature;BME280_humidity;BME280_pressure;Samples;Min_cycle;Max_cycle;Signal;HPM_P1;HPM_P2
2023/12/14 00:01:54;;;;;;;13.27;8.03;;;;;;;;;;5039569;28;20212;-63
2023/12/14 00:04:21;;;;;;;13.90;8.30;;;;;;;;;;5039621;28;20204;-62
2023/12/14 00:06:50;;;;;;;16.13;8.43;;;;;;;;;;5044279;28;20226;-62
2023/12/14 00:09:17;;;;;;;10.83;7.40;;;;;;;;;;5034254;28;20211;-62
2023/12/14 00:11:44;;;;;;;9.30;7.50;;;;;;;;;;5045329;28;20235;-62
2023/12/14 00:14:11;;;;;;;10.47;7.33;;;;;;;;;;5044392;28;20211;-63
2023/12/14 00:16:38;;;;;;;12.40;7.30;;;;;;;;;;5035369;28;20228;-63
2023/12/14 00:19:05;;;;;;;8.13;6.03;;;;;;;;;;5042431;28;20211;-62
2023/12/14 00:21:32;;;;;;;8.03;6.57;;;;;;;;;;5036677;28;21676;-62
2023/12/14 00:24:01;;;;;;;9.03;6.57;;;;;;;;;;5033629;28;20208;-63
2023/12/14 00:26:28;;;;;;;10.53;6.77;;;;;;;;;;5042143;28;20214;-62
2023/12/14 00:28:55;;;;;;;9.00;6.33;;;;;;;;;;5036841;28;20729;-62
2023/12/14 00:31:22;;;;;;;10.10;6.93;;;;;;;;;;5041076;28;20223;-62
2023/12/14 00:33:49;;;;;;;9.57;6.70;;;;;;;;;;5043976;28;20200;-62
2023/12/14 00:36:19;;;;;;;9.20;6.37;;;;;;;;;;5039846;28;20628;-62
2023/12/14 00:38:47;;;;;;;8.67;6.43;;;;;;;;;;5040871;28;20212;-62
2023/12/14 00:41:15;;;;;;;11.47;7.03;;;;;;;;;;5030742;28;20281;-62
2023/12/14 00:43:42;;;;;;;13.40;6.70;;;;;;;;;;5038972;28;20209;-62
2023/12/14 00:46:11;;;;;;;13.63;7.00;;;;;;;;;;5038418;28;20207;-62
2023/12/14 00:48:38;;;;;;;12.47;7.47;;;;;;;;;;5035258;28;20211;-62
2023/12/14 00:51:05;;;;;;;12.40;6.83;;;;;;;;;;5039053;28;20221;-62
2023/12/14 00:53:32;;;;;;;15.17;6.97;;;;;;;;;;5034638;28;20781;-62
2023/12/14 00:55:59;;;;;;;12.07;7.23;;;;;;;;;;5044799;28;20788;-62
2023/12/14 00:58:27;;;;;;;10.83;6.83;;;;;;;;;;5045052;28;20207;-62
2023/12/14 01:00:55;;;;;;;11.23;6.93;;;;;;;;;;5035409;28;20204;-62
2023/12/14 01:03:22;;;;;;;13.17;6.70;;;;;;;;;;5044387;28;20196;-62
2023/12/14 01:05:49;;;;;;;11.90;7.60;;;;;;;;;;5042500;28;20215;-62
2023/12/14 01:08:16;;;;;;;10.83;6.10;;;;;;;;;;5041292;28;20211;-62
2023/12/14 01:10:42;;;;;;;11.93;7.27;;;;;;;;;;5034636;28;20219;-62
2023/12/14 01:13:09;;;;;;;9.10;7.00;;;;;;;;;;5047897;28;20231;-62
2023/12/14 01:15:38;;;;;;;9.70;6.93;;;;;;;;;;5040957;28;20202;-62
2023/12/14 01:18:05;;;;;;;11.93;6.90;;;;;;;;;;5027505;28;20228;-62
2023/12/14 01:20:32;;;;;;;12.10;6.47;;;;;;;;;;5028172;28;20574;-62
2023/12/14 01:22:59;;;;;;;9.83;6.27;;;;;;;;;;5042513;28;20215;-62
2023/12/14 01:25:26;;;;;;;9.90;5.67;;;;;;;;;;5047209;28;20207;-62
2023/12/14 01:27:53;;;;;;;9.30;6.17;;;;;;;;;;5047474;28;20211;-62
2023/12/14 01:30:20;;;;;;;8.50;5.93;;;;;;;;;;5043953;28;20297;-61
2023/12/14 01:32:48;;;;;;;10.83;6.43;;;;;;;;;;5036481;28;20200;-62
2023/12/14 01:35:15;;;;;;;7.87;6.13;;;;;;;;;;5045900;28;20199;-62
2023/12/14 01:37:42;;;;;;;12.57;5.87;;;;;;;;;;5045849;28;20211;-61
2023/12/14 01:40:10;;;;;;;7.83;5.63;;;;;;;;;;5044312;28;20213;-62
2023/12/14 01:42:37;;;;;;;7.77;5.70;;;;;;;;;;5043252;28;20207;-63
2023/12/14 01:45:04;;;;;;;6.83;5.50;;;;;;;;;;5037620;28;20230;-61
2023/12/14 01:47:31;;;;;;;5.83;5.23;;;;;;;;;;5044124;28;20283;-61
2023/12/14 01:50:00;;;;;;;7.40;5.50;;;;;;;;;;5044813;28;20210;-61
2023/12/14 01:52:27;;;;;;;9.30;5.73;;;;;;;;;;5027580;28;20227;-61
2023/12/14 01:54:55;;;;;;;7.63;5.33;;;;;;;;;;5038927;28;20211;-61
2023/12/14 01:57:22;;;;;;;13.57;4.93;;;;;;;;;;5042833;28;20242;-61
2023/12/14 01:59:49;;;;;;;4.50;4.10;;;;;;;;;;5042858;28;20413;-61
2023/12/14 02:02:16;;;;;;;4.80;4.40;;;;;;;;;;5033128;28;20196;-61
2023/12/14 02:04:43;;;;;;;5.20;4.63;;;;;;;;;;5033533;28;20222;-61
2023/12/14 02:07:11;;;;;;;6.57;4.90;;;;;;;;;;5036746;28;20597;-61
2023/12/14 02:09:38;;;;;;;6.43;4.60;;;;;;;;;;5039552;28;21130;-61
2023/12/14 02:12:06;;;;;;;5.40;4.37;;;;;;;;;;5034683;28;20227;-61
2023/12/14 02:14:33;;;;;;;5.33;4.33;;;;;;;;;;5039787;28;20231;-61
2023/12/14 02:17:00;;;;;;;4.77;4.33;;;;;;;;;;5033663;28;20239;-61
2023/12/14 02:19:27;;;;;;;6.33;4.90;;;;;;;;;;5039608;28;20203;-61
2023/12/14 02:21:54;;;;;;;5.83;4.87;;;;;;;;;;5044588;28;20210;-61
2023/12/14 02:24:22;;;;;;;11.27;5.70;;;;;;;;;;5034947;28;20659;-61
2023/12/14 02:26:49;;;;;;;7.03;4.80;;;;;;;;;;5033082;28;20212;-61
2023/12/14 02:29:16;;;;;;;7.40;4.83;;;;;;;;;;5040682;28;20438;-62
2023/12/14 02:31:43;;;;;;;8.23;4.97;;;;;;;;;;5041168;28;20238;-62
2023/12/14 02:34:10;;;;;;;8.53;5.27;;;;;;;;;;5038043;28;20223;-62
2023/12/14 02:36:37;;;;;;;6.43;4.60;;;;;;;;;;5031505;28;20685;-61
2023/12/14 02:39:04;;;;;;;11.17;5.13;;;;;;;;;;5046394;28;20215;-62
2023/12/14 02:41:33;;;;;;;6.37;4.73;;;;;;;;;;5031607;28;20662;-62
2023/12/14 02:44:00;;;;;;;15.33;4.17;;;;;;;;;;5035200;28;20211;-61
2023/12/14 02:46:27;;;;;;;6.83;3.83;;;;;;;;;;5039616;28;20199;-62
2023/12/14 02:48:54;;;;;;;5.40;4.30;;;;;;;;;;5038990;28;20207;-62
2023/12/14 02:51:21;;;;;;;4.60;4.20;;;;;;;;;;5042766;28;20227;-62
2023/12/14 02:53:48;;;;;;;11.70;4.37;;;;;;;;;;5037961;28;20207;-62
2023/12/14 02:56:15;;;;;;;4.83;4.30;;;;;;;;;;5043057;28;20207;-62
2023/12/14 02:58:43;;;;;;;4.83;4.43;;;;;;;;;;5042535;28;20214;-62
2023/12/14 03:01:10;;;;;;;4.77;4.20;;;;;;;;;;5035982;28;20195;-62
2023/12/14 03:03:39;;;;;;;4.20;3.90;;;;;;;;;;5040176;28;20218;-62
2023/12/14 03:06:07;;;;;;;5.93;4.40;;;;;;;;;;5044486;28;20234;-62
2023/12/14 03:08:34;;;;;;;4.67;4.17;;;;;;;;;;5044693;28;20800;-62
2023/12/14 03:11:01;;;;;;;9.23;5.23;;;;;;;;;;5038638;28;20232;-62
2023/12/14 03:13:28;;;;;;;5.73;4.57;;;;;;;;;;5038951;28;20227;-62
2023/12/14 03:15:56;;;;;;;5.33;4.73;;;;;;;;;;5038528;28;20265;-62
2023/12/14 03:18:23;;;;;;;7.63;5.30;;;;;;;;;;5034163;28;20251;-62
2023/12/14 03:20:50;;;;;;;5.67;4.97;;;;;;;;;;5045368;28;20200;-62
2023/12/14 03:23:18;;;;;;;6.30;4.53;;;;;;;;;;5039344;28;20231;-62
2023/12/14 03:25:44;;;;;;;9.00;4.87;;;;;;;;;;5026627;28;20713;-62
2023/12/14 03:28:11;;;;;;;9.27;5.10;;;;;;;;;;5034133;28;20203;-62
2023/12/14 03:30:38;;;;;;;7.87;5.23;;;;;;;;;;5037564;28;20757;-62
2023/12/14 03:33:07;;;;;;;7.60;5.70;;;;;;;;;;5036263;28;20223;-62
2023/12/14 03:35:35;;;;;;;6.57;4.77;;;;;;;;;;5037244;28;20225;-62
2023/12/14 03:38:02;;;;;;;10.60;5.20;;;;;;;;;;5043834;28;20200;-62
2023/12/14 03:40:29;;;;;;;5.50;4.70;;;;;;;;;;5022064;28;20211;-62
2023/12/14 03:42:56;;;;;;;6.60;4.87;;;;;;;;;;5044442;28;20207;-62
2023/12/14 03:45:23;;;;;;;7.83;5.10;;;;;;;;;;5034143;28;20207;-62
2023/12/14 03:47:50;;;;;;;8.43;5.50;;;;;;;;;;5046566;28;20208;-62
2023/12/14 03:50:19;;;;;;;10.03;5.53;;;;;;;;;;5033959;28;20687;-62
2023/12/14 03:52:46;;;;;;;8.10;5.53;;;;;;;;;;5041312;28;20228;-62
2023/12/14 03:55:14;;;;;;;6.30;4.83;;;;;;;;;;5034574;28;20219;-62
2023/12/14 03:57:42;;;;;;;8.27;5.37;;;;;;;;;;5036970;28;20211;-61
2023/12/14 04:00:11;;;;;;;7.67;5.60;;;;;;;;;;5031612;28;20230;-62
2023/12/14 04:02:38;;;;;;;7.90;5.00;;;;;;;;;;5038250;28;20616;-61
2023/12/14 04:05:05;;;;;;;7.00;4.90;;;;;;;;;;5036479;28;20215;-61
2023/12/14 04:07:35;;;;;;;9.47;5.03;;;;;;;;;;5042442;28;20209;-62
2023/12/14 04:10:02;;;;;;;6.70;4.70;;;;;;;;;;5046504;28;20673;-61
2023/12/14 04:12:29;;;;;;;5.40;4.90;;;;;;;;;;5039252;28;20224;-62
2023/12/14 04:14:56;;;;;;;8.67;4.43;;;;;;;;;;5045075;28;20200;-61
2023/12/14 04:17:23;;;;;;;5.77;4.70;;;;;;;;;;5040035;28;20238;-62
2023/12/14 04:19:50;;;;;;;8.20;4.83;;;;;;;;;;5046284;28;20214;-62
2023/12/14 04:22:17;;;;;;;6.23;4.70;;;;;;;;;;5041524;28;20852;-61
2023/12/14 04:24:45;;;;;;;6.17;4.83;;;;;;;;;;5046013;28;20218;-61
2023/12/14 04:27:12;;;;;;;8.00;4.57;;;;;;;;;;5045767;28;20219;-61
2023/12/14 04:29:40;;;;;;;6.87;4.60;;;;;;;;;;5030678;28;20606;-62
2023/12/14 04:32:07;;;;;;;9.10;4.47;;;;;;;;;;5043892;28;20613;-62
2023/12/14 04:34:34;;;;;;;4.80;4.40;;;;;;;;;;5030636;28;20216;-62
2023/12/14 04:37:01;;;;;;;7.40;4.37;;;;;;;;;;5036917;28;20670;-61
2023/12/14 04:39:28;;;;;;;6.70;4.60;;;;;;;;;;5041019;28;20207;-62
2023/12/14 04:41:57;;;;;;;6.27;4.70;;;;;;;;;;5027509;28;20331;-61
2023/12/14 04:44:24;;;;;;;7.97;5.07;;;;;;;;;;5034251;28;20206;-62
2023/12/14 04:46:51;;;;;;;5.90;4.27;;;;;;;;;;5039132;28;20662;-62
2023/12/14 04:49:19;;;;;;;6.27;4.40;;;;;;;;;;5038833;28;20647;-62
2023/12/14 04:51:46;;;;;;;7.57;5.00;;;;;;;;;;5047189;28;20220;-62
2023/12/14 04:54:13;;;;;;;6.50;4.73;;;;;;;;;;5041273;28;20207;-62
2023/12/14 04:56:41;;;;;;;8.13;5.67;;;;;;;;;;5047528;28;20211;-62
2023/12/14 04:59:09;;;;;;;7.07;5.30;;;;;;;;;;5038539;28;20208;-61
2023/12/14 05:01:36;;;;;;;7.30;5.30;;;;;;;;;;5037248;28;20211;-61
2023/12/14 05:04:03;;;;;;;7.43;4.93;;;;;;;;;;5036877;28;20769;-62
2023/12/14 05:06:32;;;;;;;12.47;5.23;;;;;;;;;;5031082;28;20665;-64
2023/12/14 05:09:02;;;;;;;11.73;4.90;;;;;;;;;;5042598;28;20424;-62
2023/12/14 05:11:29;;;;;;;8.20;4.90;;;;;;;;;;5038710;28;20330;-61
2023/12/14 05:13:56;;;;;;;5.10;4.60;;;;;;;;;;5035701;28;20204;-61
2023/12/14 05:16:26;;;;;;;7.77;4.90;;;;;;;;;;5033658;28;20232;-62
2023/12/14 05:18:53;;;;;;;5.63;4.67;;;;;;;;;;5044688;28;20199;-62
2023/12/14 05:21:20;;;;;;;6.43;4.77;;;;;;;;;;5035110;28;20273;-63
2023/12/14 05:23:47;;;;;;;7.20;5.20;;;;;;;;;;5045254;28;20200;-63
2023/12/14 05:26:14;;;;;;;6.97;4.97;;;;;;;;;;5045222;28;20600;-63
2023/12/14 05:28:41;;;;;;;6.37;4.73;;;;;;;;;;5041313;28;20745;-63
2023/12/14 05:31:08;;;;;;;8.07;5.07;;;;;;;;;;5041726;28;20215;-63
2023/12/14 05:33:39;;;;;;;5.60;4.87;;;;;;;;;;5034536;28;20236;-63
2023/12/14 05:36:10;;;;;;;8.97;4.43;;;;;;;;;;5043212;28;20196;-62
2023/12/14 05:38:37;;;;;;;8.53;4.63;;;;;;;;;;5045481;28;20601;-63
2023/12/14 05:41:04;;;;;;;6.03;4.87;;;;;;;;;;5031580;28;20674;-63
2023/12/14 05:43:31;;;;;;;7.07;4.87;;;;;;;;;;5029246;28;20216;-63
2023/12/14 05:45:58;;;;;;;7.77;4.50;;;;;;;;;;5041570;28;20238;-63
2023/12/14 05:48:26;;;;;;;4.83;4.33;;;;;;;;;;5040350;28;20210;-63
2023/12/14 05:50:55;;;;;;;6.00;4.87;;;;;;;;;;5034345;28;20277;-63
2023/12/14 05:53:22;;;;;;;6.03;4.73;;;;;;;;;;5040847;28;20215;-63
2023/12/14 05:55:49;;;;;;;9.50;4.60;;;;;;;;;;5035253;28;20354;-63
2023/12/14 05:58:16;;;;;;;8.90;4.87;;;;;;;;;;5039925;28;20214;-62
2023/12/14 06:00:43;;;;;;;6.27;4.80;;;;;;;;;;5036325;28;20211;-62
2023/12/14 06:03:10;;;;;;;7.03;5.20;;;;;;;;;;5042836;28;20427;-63
2023/12/14 06:05:37;;;;;;;4.87;4.47;;;;;;;;;;5034415;28;20220;-63
2023/12/14 06:08:05;;;;;;;5.17;4.67;;;;;;;;;;5043189;28;20207;-66
2023/12/14 06:10:32;;;;;;;6.07;4.80;;;;;;;;;;5033019;28;20660;-63
2023/12/14 06:13:00;;;;;;;9.90;5.20;;;;;;;;;;5038094;28;20223;-64
2023/12/14 06:15:27;;;;;;;10.03;4.53;;;;;;;;;;5044523;28;20232;-63
2023/12/14 06:17:54;;;;;;;6.83;4.93;;;;;;;;;;5029343;28;20258;-63
2023/12/14 06:20:21;;;;;;;12.20;4.80;;;;;;;;;;5041323;28;20223;-63
2023/12/14 06:22:48;;;;;;;5.40;4.63;;;;;;;;;;5031868;28;20599;-63
2023/12/14 06:25:16;;;;;;;9.10;5.07;;;;;;;;;;5037355;28;20211;-63
2023/12/14 06:27:44;;;;;;;6.20;4.83;;;;;;;;;;5039951;28;20204;-67
2023/12/14 06:30:12;;;;;;;5.50;4.87;;;;;;;;;;5044335;28;20214;-63
2023/12/14 06:32:39;;;;;;;5.87;5.00;;;;;;;;;;5040369;28;20243;-63
2023/12/14 06:35:06;;;;;;;6.53;5.00;;;;;;;;;;5027787;28;20244;-63
2023/12/14 06:37:33;;;;;;;4.83;4.33;;;;;;;;;;5022480;28;20212;-63
2023/12/14 06:40:00;;;;;;;6.07;5.07;;;;;;;;;;5036022;28;20212;-63
2023/12/14 06:42:30;;;;;;;7.87;4.43;;;;;;;;;;5039637;28;20203;-63
2023/12/14 06:44:57;;;;;;;5.13;4.53;;;;;;;;;;5028345;28;20207;-65
2023/12/14 06:47:24;;;;;;;11.43;5.07;;;;;;;;;;5042631;28;20212;-64
2023/12/14 06:49:51;;;;;;;5.20;4.80;;;;;;;;;;5038333;28;20685;-62
2023/12/14 06:52:18;;;;;;;8.00;5.23;;;;;;;;;;5026853;28;20228;-63
2023/12/14 06:54:46;;;;;;;5.43;4.93;;;;;;;;;;5039685;28;20200;-63
2023/12/14 06:57:13;;;;;;;7.23;5.03;;;;;;;;;;5026133;28;20208;-62
2023/12/14 06:59:41;;;;;;;4.90;4.47;;;;;;;;;;5025884;28;20721;-63
2023/12/14 07:02:09;;;;;;;6.07;4.90;;;;;;;;;;5035971;28;20215;-63
2023/12/14 07:04:36;;;;;;;6.33;5.03;;;;;;;;;;5035247;28;20242;-63
2023/12/14 07:07:03;;;;;;;6.60;4.60;;;;;;;;;;5025949;28;20561;-63
2023/12/14 07:09:30;;;;;;;5.70;4.83;;;;;;;;;;5024262;28;20278;-62
2023/12/14 07:11:57;;;;;;;13.27;5.00;;;;;;;;;;5034709;28;20296;-63
2023/12/14 07:14:24;;;;;;;5.43;4.93;;;;;;;;;;5040095;28;20270;-62
2023/12/14 07:16:53;;;;;;;6.00;4.80;;;;;;;;;;5045577;28;20243;-63
2023/12/14 07:19:20;;;;;;;8.73;5.30;;;;;;;;;;5039777;28;20231;-63
2023/12/14 07:21:47;;;;;;;7.03;5.37;;;;;;;;;;5036733;28;20686;-63
2023/12/14 07:24:14;;;;;;;8.50;5.53;;;;;;;;;;5031143;28;20587;-63
2023/12/14 07:26:41;;;;;;;8.53;6.20;;;;;;;;;;5035688;28;20646;-63
2023/12/14 07:29:08;;;;;;;9.10;6.30;;;;;;;;;;5044208;28;20316;-63
2023/12/14 07:31:35;;;;;;;7.53;6.40;;;;;;;;;;5045488;28;20223;-61
2023/12/14 07:34:04;;;;;;;9.13;6.50;;;;;;;;;;5047019;28;20227;-61
2023/12/14 07:36:31;;;;;;;12.77;6.83;;;;;;;;;;5046415;28;20208;-62
2023/12/14 07:39:00;;;;;;;7.93;6.30;;;;;;;;;;5046825;28;20248;-64
2023/12/14 07:41:29;;;;;;;9.93;6.27;;;;;;;;;;5047896;28;20223;-61
2023/12/14 07:43:56;;;;;;;8.97;6.50;;;;;;;;;;5049720;28;20212;-62
2023/12/14 07:46:23;;;;;;;9.63;6.30;;;;;;;;;;5049769;28;20211;-62
2023/12/14 07:48:50;;;;;;;8.00;5.93;;;;;;;;;;5049455;28;20208;-62
2023/12/14 07:51:19;;;;;;;9.67;6.20;;;;;;;;;;5047866;28;20211;-63
2023/12/14 07:53:46;;;;;;;6.27;5.63;;;;;;;;;;5049672;28;20235;-62
2023/12/14 07:56:13;;;;;;;5.87;5.37;;;;;;;;;;5048232;28;20261;-61
2023/12/14 07:58:40;;;;;;;6.67;5.40;;;;;;;;;;5038037;28;20195;-62
2023/12/14 08:01:08;;;;;;;8.07;5.17;;;;;;;;;;5042198;28;20201;-62
2023/12/14 08:03:35;;;;;;;6.03;5.40;;;;;;;;;;5034222;28;20216;-61
2023/12/14 08:06:02;;;;;;;10.57;5.63;;;;;;;;;;5042506;28;20193;-61
2023/12/14 08:08:30;;;;;;;6.03;5.43;;;;;;;;;;5027559;28;20228;-61
2023/12/14 08:10:57;;;;;;;6.37;5.00;;;;;;;;;;5032255;28;20191;-61
2023/12/14 08:13:24;;;;;;;5.90;5.27;;;;;;;;;;5034664;28;21038;-69
2023/12/14 08:15:51;;;;;;;8.73;5.67;;;;;;;;;;5026817;28;20212;-64
2023/12/14 08:18:18;;;;;;;5.60;4.80;;;;;;;;;;5029344;28;20636;-64
2023/12/14 08:20:45;;;;;;;5.50;4.57;;;;;;;;;;5042277;28;20204;-72
2023/12/14 08:23:12;;;;;;;6.07;5.47;;;;;;;;;;5031622;28;20207;-64
2023/12/14 08:25:41;;;;;;;9.33;5.63;;;;;;;;;;5031186;28;20204;-66
2023/12/14 08:28:08;;;;;;;8.57;5.30;;;;;;;;;;5048088;28;20218;-71
2023/12/14 08:30:35;;;;;;;8.60;4.97;;;;;;;;;;5045283;28;20203;-61
2023/12/14 08:33:02;;;;;;;8.50;5.30;;;;;;;;;;5048294;28;20232;-62
2023/12/14 08:35:29;;;;;;;6.70;5.20;;;;;;;;;;5046836;28;20570;-61
2023/12/14 08:37:56;;;;;;;6.30;5.00;;;;;;;;;;5048663;28;20208;-61
2023/12/14 08:40:23;;;;;;;7.63;4.97;;;;;;;;;;5048869;28;20566;-59
2023/12/14 08:42:52;;;;;;;7.30;5.37;;;;;;;;;;5044640;28;20210;-62
2023/12/14 08:45:19;;;;;;;5.60;5.10;;;;;;;;;;5047737;28;20211;-59
2023/12/14 08:47:46;;;;;;;10.20;6.10;;;;;;;;;;5048504;28;20214;-61
2023/12/14 08:50:13;;;;;;;6.40;4.57;;;;;;;;;;5046566;28;20211;-63
2023/12/14 08:52:40;;;;;;;16.57;7.07;;;;;;;;;;5047952;28;20208;-62
2023/12/14 08:55:08;;;;;;;15.57;7.83;;;;;;;;;;5048279;28;20212;-61
2023/12/14 08:57:35;;;;;;;21.80;8.83;;;;;;;;;;5043058;28;20208;-63
2023/12/14 09:00:04;;;;;;;29.13;10.30;;;;;;;;;;5048442;28;20420;-61
2023/12/14 09:02:31;;;;;;;25.53;9.53;;;;;;;;;;5048182;28;20211;-62
2023/12/14 09:04:58;;;;;;;18.97;9.93;;;;;;;;;;5047821;28;20216;-61
2023/12/14 09:07:25;;;;;;;23.27;9.53;;;;;;;;;;5048051;28;20220;-60
2023/12/14 09:09:52;;;;;;;17.80;9.00;;;;;;;;;;5048015;28;20238;-64
2023/12/14 09:12:19;;;;;;;15.30;9.10;;;;;;;;;;5045983;28;20204;-62
2023/12/14 09:14:46;;;;;;;16.00;6.87;;;;;;;;;;5040383;28;20314;-61
2023/12/14 09:17:15;;;;;;;15.43;8.30;;;;;;;;;;5026116;28;20251;-61
2023/12/14 09:19:42;;;;;;;11.47;7.97;;;;;;;;;;5027553;28;20215;-62
2023/12/14 09:22:09;;;;;;;11.33;7.07;;;;;;;;;;5041438;28;20215;-61
2023/12/14 09:24:36;;;;;;;9.33;5.97;;;;;;;;;;5027672;28;20201;-62
2023/12/14 09:27:03;;;;;;;6.60;4.90;;;;;;;;;;5029721;28;20208;-61
2023/12/14 09:29:30;;;;;;;4.57;3.93;;;;;;;;;;5043738;28;20234;-62
2023/12/14 09:31:57;;;;;;;6.77;5.17;;;;;;;;;;5047592;28;20285;-62
2023/12/14 09:34:26;;;;;;;4.63;4.23;;;;;;;;;;5046827;28;20231;-62
2023/12/14 09:36:53;;;;;;;5.87;4.40;;;;;;;;;;5037051;28;20204;-61
2023/12/14 09:39:21;;;;;;;5.10;3.90;;;;;;;;;;5024705;28;20219;-62
2023/12/14 09:41:48;;;;;;;4.53;4.10;;;;;;;;;;5045233;28;20571;-61
2023/12/14 09:44:16;;;;;;;5.47;3.70;;;;;;;;;;5041978;28;20208;-61
2023/12/14 09:46:48;;;;;;;6.10;4.73;;;;;;;;;;5038975;28;20226;-61
2023/12/14 09:49:16;;;;;;;4.33;3.93;;;;;;;;;;5044845;28;20204;-61
2023/12/14 09:51:44;;;;;;;4.80;4.30;;;;;;;;;;5035812;28;20207;-62
2023/12/14 09:54:11;;;;;;;4.57;4.17;;;;;;;;;;5045943;28;20224;-62
2023/12/14 09:56:46;;;;;;;4.20;3.90;;;;;;;;;;5046822;28;20211;-61
2023/12/14 09:59:13;;;;;;;4.83;3.70;;;;;;;;;;5027345;28;20234;-61
2023/12/14 10:01:40;;;;;;;5.67;4.17;;;;;;;;;;5030801;28;20205;-61
2023/12/14 10:04:11;;;;;;;5.17;4.37;;;;;;;;;;5044652;28;20211;-61
2023/12/14 10:06:39;;;;;;;5.20;4.50;;;;;;;;;;5047046;28;20212;-63
2023/12/14 10:09:09;;;;;;;5.03;4.20;;;;;;;;;;5028096;28;20970;-62
2023/12/14 10:11:36;;;;;;;5.10;3.87;;;;;;;;;;5028088;28;20226;-61
2023/12/14 10:14:04;;;;;;;4.93;4.27;;;;;;;;;;5030106;28;20471;-61
2023/12/14 10:16:31;;;;;;;4.50;4.00;;;;;;;;;;5028872;28;20676;-62
2023/12/14 10:18:59;;;;;;;3.80;3.10;;;;;;;;;;5025061;28;20220;-61
2023/12/14 10:21:26;;;;;;;4.17;3.77;;;;;;;;;;5023304;28;20224;-61
2023/12/14 10:23:53;;;;;;;7.07;3.33;;;;;;;;;;5026858;28;20204;-61
2023/12/14 10:26:23;;;;;;;6.07;3.70;;;;;;;;;;5026615;28;20204;-61
2023/12/14 10:28:51;;;;;;;3.93;3.53;;;;;;;;;;5026598;28;20258;-62
2023/12/14 10:31:19;;;;;;;4.20;3.50;;;;;;;;;;5026553;28;20686;-62
2023/12/14 10:33:46;;;;;;;4.10;3.70;;;;;;;;;;5032786;28;20238;-64
2023/12/14 10:36:14;;;;;;;3.33;3.13;;;;;;;;;;5044574;28;20250;-62
2023/12/14 10:38:42;;;;;;;4.17;3.43;;;;;;;;;;5046301;28;20447;-62
2023/12/14 10:41:09;;;;;;;4.03;3.53;;;;;;;;;;5046384;28;20635;-61
2023/12/14 10:43:38;;;;;;;3.73;3.20;;;;;;;;;;5044609;28;20212;-62
2023/12/14 10:46:07;;;;;;;3.40;3.10;;;;;;;;;;5044712;28;20281;-62
2023/12/14 10:48:36;;;;;;;3.67;3.33;;;;;;;;;;5044689;28;20284;-62
2023/12/14 10:51:05;;;;;;;2.97;2.77;;;;;;;;;;5046101;28;20682;-63
2023/12/14 10:53:32;;;;;;;3.90;3.10;;;;;;;;;;5050404;28;20740;-63
2023/12/14 10:56:00;;;;;;;3.07;2.87;;;;;;;;;;5049923;28;20211;-62
2023/12/14 10:58:28;;;;;;;2.80;2.60;;;;;;;;;;5049815;28;20215;-62
2023/12/14 11:01:03;;;;;;;2.80;2.60;;;;;;;;;;5044776;28;20214;-62
2023/12/14 11:03:35;;;;;;;3.73;3.43;;;;;;;;;;5036005;28;20200;-63
2023/12/14 11:06:04;;;;;;;3.50;3.20;;;;;;;;;;5045833;28;20294;-62
2023/12/14 11:08:31;;;;;;;3.10;2.90;;;;;;;;;;5050196;28;20241;-62
2023/12/14 11:11:10;;;;;;;3.63;3.33;;;;;;;;;;5050248;28;20240;-62
2023/12/14 11:13:38;;;;;;;5.37;3.60;;;;;;;;;;5046051;28;20262;-62
2023/12/14 11:16:07;;;;;;;3.43;3.20;;;;;;;;;;5028188;28;20255;-63
2023/12/14 11:18:34;;;;;;;4.90;3.80;;;;;;;;;;5026247;28;20251;-62
2023/12/14 11:21:01;;;;;;;4.23;3.70;;;;;;;;;;5030002;28;20208;-62
2023/12/14 11:23:30;;;;;;;3.60;3.20;;;;;;;;;;5031174;28;20226;-62
2023/12/14 11:25:58;;;;;;;3.67;3.37;;;;;;;;;;5034119;28;20299;-63
2023/12/14 11:28:25;;;;;;;4.17;3.47;;;;;;;;;;5038468;28;20278;-64
2023/12/14 11:30:53;;;;;;;3.90;3.60;;;;;;;;;;5029609;28;20216;-62
2023/12/14 11:33:21;;;;;;;14.27;5.47;;;;;;;;;;5032466;28;20205;-63
2023/12/14 11:35:48;;;;;;;4.77;3.13;;;;;;;;;;5027846;28;20219;-62
2023/12/14 11:38:15;;;;;;;5.67;3.33;;;;;;;;;;5028056;28;20213;-62
2023/12/14 11:40:43;;;;;;;3.90;2.90;;;;;;;;;;5029547;28;20212;-62
2023/12/14 11:43:10;;;;;;;3.43;3.13;;;;;;;;;;5027856;28;20208;-62
2023/12/14 11:45:38;;;;;;;4.03;3.73;;;;;;;;;;5030569;28;20231;-63
2023/12/14 11:48:05;;;;;;;4.73;3.73;;;;;;;;;;5041517;28;20273;-63
2023/12/14 11:50:34;;;;;;;4.67;3.83;;;;;;;;;;5046869;28;20211;-63
2023/12/14 11:53:03;;;;;;;3.97;3.03;;;;;;;;;;5040450;28;20224;-62
2023/12/14 11:55:30;;;;;;;3.53;3.27;;;;;;;;;;5028863;28;20729;-62
2023/12/14 11:57:58;;;;;;;3.80;3.43;;;;;;;;;;5037247;28;20235;-63
2023/12/14 12:00:26;;;;;;;2.90;2.70;;;;;;;;;;5049076;28;20199;-63
2023/12/14 12:02:53;;;;;;;3.43;3.13;;;;;;;;;;5047011;28;20227;-62
2023/12/14 12:05:20;;;;;;;3.37;2.90;;;;;;;;;;5040413;28;20210;-62
2023/12/14 12:07:48;;;;;;;3.27;3.07;;;;;;;;;;5046582;28;20216;-63
2023/12/14 12:10:15;;;;;;;4.23;3.20;;;;;;;;;;5041477;28;20463;-62
2023/12/14 12:12:50;;;;;;;5.93;3.53;;;;;;;;;;5044864;28;20208;-63
2023/12/14 12:15:18;;;;;;;2.83;2.73;;;;;;;;;;5033539;28;20224;-66
2023/12/14 12:17:45;;;;;;;6.27;3.60;;;;;;;;;;5037009;28;20609;-62
2023/12/14 12:20:13;;;;;;;3.80;3.20;;;;;;;;;;5035103;28;20232;-62
2023/12/14 12:22:40;;;;;;;3.53;3.23;;;;;;;;;;5042903;28;20207;-63
2023/12/14 12:25:09;;;;;;;4.53;2.93;;;;;;;;;;5038904;28;20214;-63
2023/12/14 12:27:36;;;;;;;3.33;3.10;;;;;;;;;;5039386;28;20199;-63
2023/12/14 12:30:03;;;;;;;3.90;3.60;;;;;;;;;;5037338;28;20466;-64
2023/12/14 12:32:30;;;;;;;3.77;3.47;;;;;;;;;;5028485;28;20212;-63
2023/12/14 12:34:58;;;;;;;3.33;3.13;;;;;;;;;;5034091;28;20232;-64
2023/12/14 12:37:25;;;;;;;4.10;3.70;;;;;;;;;;5031803;28;20311;-63
2023/12/14 12:39:52;;;;;;;5.10;3.50;;;;;;;;;;5030504;28;20219;-64
2023/12/14 12:42:21;;;;;;;4.77;3.20;;;;;;;;;;5035621;28;20688;-63
2023/12/14 12:44:48;;;;;;;3.93;2.90;;;;;;;;;;5031793;28;20208;-63
2023/12/14 12:47:15;;;;;;;3.67;3.10;;;;;;;;;;5025786;28;20207;-63
2023/12/14 12:49:43;;;;;;;3.83;3.37;;;;;;;;;;5029410;28;20231;-63
2023/12/14 12:52:10;;;;;;;4.23;3.37;;;;;;;;;;5027445;28;20212;-64
2023/12/14 12:54:37;;;;;;;3.40;3.10;;;;;;;;;;5030041;28;20231;-63
2023/12/14 12:57:05;;;;;;;3.77;3.37;;;;;;;;;;5027107;28;20386;-64
2023/12/14 12:59:33;;;;;;;3.87;3.37;;;;;;;;;;5028760;28;20205;-64
2023/12/14 13:02:02;;;;;;;5.57;3.83;;;;;;;;;;5036354;28;20596;-63
2023/12/14 13:04:30;;;;;;;4.53;4.13;;;;;;;;;;5031490;28;20239;-62
2023/12/14 13:06:57;;;;;;;6.83;3.63;;;;;;;;;;5030942;28;20592;-63
2023/12/14 13:09:24;;;;;;;4.80;4.27;;;;;;;;;;5034791;28;20218;-62
2023/12/14 13:11:52;;;;;;;4.53;3.83;;;;;;;;;;5034562;28;20211;-64
2023/12/14 13:14:19;;;;;;;3.50;3.20;;;;;;;;;;5030937;28;20289;-65
2023/12/14 13:16:49;;;;;;;4.10;3.70;;;;;;;;;;5026733;28;20244;-64
2023/12/14 13:19:16;;;;;;;3.73;3.40;;;;;;;;;;5037572;28;20204;-64
2023/12/14 13:21:43;;;;;;;4.90;3.20;;;;;;;;;;5026968;28;20216;-64
2023/12/14 13:24:10;;;;;;;4.43;3.50;;;;;;;;;;5025413;28;20216;-64
2023/12/14 13:26:38;;;;;;;3.30;3.10;;;;;;;;;;5031207;28;20228;-65
2023/12/14 13:29:05;;;;;;;3.70;3.40;;;;;;;;;;5035744;28;20227;-65
2023/12/14 13:31:32;;;;;;;3.20;2.90;;;;;;;;;;5031818;28;21369;-64
2023/12/14 13:34:00;;;;;;;3.93;3.50;;;;;;;;;;5030415;28;20218;-64
2023/12/14 13:36:27;;;;;;;3.50;3.20;;;;;;;;;;5037415;28;20212;-64
2023/12/14 13:38:56;;;;;;;4.27;3.47;;;;;;;;;;5032071;28;20799;-65
2023/12/14 13:41:23;;;;;;;13.17;6.83;;;;;;;;;;5027551;28;20661;-64
2023/12/14 13:43:51;;;;;;;10.87;6.60;;;;;;;;;;5028643;28;20254;-64
2023/12/14 13:46:18;;;;;;;4.53;4.10;;;;;;;;;;5027995;28;20226;-64
2023/12/14 13:48:45;;;;;;;4.50;3.60;;;;;;;;;;5025818;28;20219;-65
2023/12/14 13:51:14;;;;;;;6.47;3.83;;;;;;;;;;5026784;28;20203;-65
2023/12/14 13:53:41;;;;;;;8.00;5.27;;;;;;;;;;5042290;28;20211;-64
2023/12/14 13:56:09;;;;;;;5.77;4.50;;;;;;;;;;5036450;28;20224;-64
2023/12/14 13:58:38;;;;;;;4.17;3.60;;;;;;;;;;5037214;28;20210;-64
2023/12/14 14:01:08;;;;;;;5.60;4.07;;;;;;;;;;5037543;28;20208;-65
2023/12/14 14:03:37;;;;;;;6.30;3.53;;;;;;;;;;5042418;28;20219;-64
2023/12/14 14:06:04;;;;;;;3.70;3.27;;;;;;;;;;5039482;28;21022;-65
2023/12/14 14:08:33;;;;;;;3.67;3.37;;;;;;;;;;5039671;28;20219;-65
2023/12/14 14:11:00;;;;;;;3.03;2.83;;;;;;;;;;5041960;28;20636;-64
2023/12/14 14:13:27;;;;;;;3.73;3.40;;;;;;;;;;5038788;28;20208;-65
2023/12/14 14:15:54;;;;;;;4.47;3.10;;;;;;;;;;5037643;28;20242;-64
2023/12/14 14:18:21;;;;;;;2.80;2.60;;;;;;;;;;5040808;28;20236;-64
2023/12/14 14:20:50;;;;;;;3.73;3.40;;;;;;;;;;5044732;28;20218;-64
2023/12/14 14:23:17;;;;;;;5.00;3.77;;;;;;;;;;5045564;28;20235;-64
2023/12/14 14:25:45;;;;;;;5.67;4.50;;;;;;;;;;5041086;28;20257;-65
2023/12/14 14:28:12;;;;;;;4.03;3.50;;;;;;;;;;5041203;28;20290;-64
2023/12/14 14:30:40;;;;;;;4.13;3.50;;;;;;;;;;5035226;28;20211;-64
2023/12/14 14:33:17;;;;;;;4.07;3.47;;;;;;;;;;5045560;28;20212;-64
2023/12/14 14:35:44;;;;;;;5.03;4.00;;;;;;;;;;5044003;28;20218;-64
2023/12/14 14:38:11;;;;;;;4.47;3.50;;;;;;;;;;5042590;28;20230;-64
2023/12/14 14:40:39;;;;;;;4.60;3.77;;;;;;;;;;5041576;28;20216;-65
2023/12/14 14:43:07;;;;;;;5.23;4.70;;;;;;;;;;5045272;28;20756;-64